Terminal Aerodrome Forecast
Issued by NWS

Home | Current Version | Previous Version | Graphics & Text | Print | Product List | Glossary On
Versions: 1 2 3 4 5 6 7 8 9 10 11 12 13 14 15 16 17 18 19 20
000
FTUS43 KGRB 201126
TAFRHI
TAF
KRHI 201126Z 2012/2112 29003KT P6SM BKN060
     FM201300 29007KT P6SM -SHRA SCT030 BKN045
      TEMPO 2013/2016 -SHRA BKN030
     FM202000 31007KT P6SM SCT060
     FM210000 30003KT P6SM FEW080=

USA.gov is the U.S. government's official web portal to all federal, state and local government web resources and services.